x

Smith Island, Wa (sisw1) Weather Station

3:00 - Sat 25th Feb 2017 All times are PST. -8 hours from GMT.

  • Wind
    14mph, 15mph gusts
  • Luft Temp 42°f
  • Sea Pressure 1019.6mb
  • Smith Island, Wa
  • Smith Island, Wa

More Historic Weather Station data

Upgrade to MSW Pro to gain access to the past 30 days of data for over 8000 Wavebouys and Weather Stations around the globe.

Join Pro

Comparision Forecast

View Surf forecast
   
Sa 02/25 3:00 14 15 mph 1019.6mb 42f
2:00 7 8 mph 1020.5mb 43f
1:00 6 7 mph 1022.1mb 44f
12:00 7 8 mph 1022.8mb 44f
11:00 5 6 mph 1023.3mb 41f
10:00 5 6 mph 1023.6mb 41f
9:00 3
mph
1024.2mb 40f
8:00 6 7 mph 1024.4mb 39f
7:00 7 8 mph 1024.1mb 39f
6:00 7 8 mph 1024.2mb 39f
5:00 9 10 mph 1024.6mb 39f
4:00 5 7 mph 1024.6mb 40f
3:00 10 11 mph 1024.8mb 40f
2:00 9 10 mph 1025.1mb 40f
1:00 14 15 mph 1024.8mb 40f
12:00 10 11 mph 1024.4mb 40f
Fr 02/24 11:00 14 16 mph 1024.5mb 40f
10:00 10 13 mph 1024.5mb 40f
9:00 10 11 mph 1024.1mb 41f
8:00 10 13 mph 1023.4mb 41f
7:00 8 9 mph 1023.1mb 42f
6:00 8 9 mph 1022.4mb 42f
5:00 7 8 mph 1022.1mb 43f
4:00 11 13 mph 1021.9mb 44f
3:00 14 16 mph 1021.6mb 44f
2:00 16 17 mph 1021.6mb 43f
1:00 18 22 mph 1021.7mb 43f
12:00 21 22 mph 1021.7mb 41f
11:00 18 21 mph 1021.4mb 41f
10:00 22 24 mph 1020.9mb 39f
9:00 16 18 mph 1020.4mb 38f
8:00 20 22 mph 1020.1mb 38f
7:00 17 20 mph 1020mb 37f
6:00 16 18 mph 1019.8mb 37f
5:00 14 15 mph 1019.8mb 38f
4:00 17 20 mph 1019.7mb 38f
3:00 13 15 mph 1020mb 38f
2:00 11 13 mph 1020.4mb 39f
1:00 13 15 mph 1020.7mb 39f
12:00 15 17 mph 1021mb 39f
Do 02/23 11:00 15 17 mph 1021.5mb 40f
10:00 14 15 mph 1021.5mb 40f
9:00 11 13 mph 1021.6mb 40f
8:00 10 11 mph 1021.9mb 40f
7:00 9 11 mph 1022.3mb 40f
6:00 3 6 mph 1022.7mb 40f
5:00 3
mph
1022.9mb 43f
4:00 2 3 mph 1023.2mb 43f
3:00 2 3 mph 1023.7mb 42f
2:00 6 7 mph 1024.1mb 42f
1:00 8 9 mph 1024.6mb 42f
12:00 8 10 mph 1024.9mb 41f
11:00 13 15 mph 1024.9mb 39f
10:00 13 16 mph 1024.9mb 40f
9:00 7 11 mph 1024.6mb 40f
8:00 8 11 mph 1024.6mb 39f
7:00 8 9 mph 1023.9mb 39f
6:00 9 11 mph 1023.8mb 39f
5:00 13
mph
1023.8mb 38f
4:00 7 8 mph 1023.6mb 39f
3:00 5 8 mph 1023.5mb 39f
2:00 13 18 mph 1023.4mb 40f
Mi 02/22 2:00 13 21 mph 1021.1mb 42f
1:00 14 22 mph 1020.8mb 43f